FBSP

Selebi Phikwe Airport

Botswana
TAF FBSP 260900Z 2612/2621 16004KT CAVOK
Issued Valid From Valid To
Apr-26 @ 09:00 UTC
(5 hours ago)
Apr-26 @ 12:00 UTC
(2 hours ago)
Apr-26 @ 21:00 UTC
(in 7 hours)
Apr-26 @ 12:00 to Apr-26 @ 21:00
TAF FBSP 260900Z 2612/2621 16004KT CAVOK
Wind Visibility Clouds Conditions
160° at 4 knots 10,000+ meters
  • No significant clouds
TAF FBSP 260900Z 2612/2621 16004KT CAVOK
Issued Apr-26 @ 09:00 UTC
(5 hours ago)
Valid From Apr-26 @ 12:00 UTC
(2 hours ago)
Valid To Apr-26 @ 21:00 UTC
(in 7 hours)
Apr-26 @ 12:00 - Apr-26 @ 21:00
Wind Visibility
160° at 4 knots 10,000+ meters
Clouds
  • No significant clouds
Conditions